Главная страница
METAR-TAF:

METAR-TAF

Аэропорты :

Сольнок (авиабаза)

Сольнок, Венгрия

широта: 47-07N, долгота: 020-14E, высота над уровнем моря: 89 м

Текущие метеонаблюдения

Эта сводка был подготовлена 21 минут назад, в 22:15 UTC
Ветер 4 Узел от южный
Температура 14°C
Влажность 67%
Давление 1016 hPa
Видимость 10 км и более
Нет облачности ниже 1500 м, и нет кучево-дождевой облачности

METAR: LHSN 252215Z 17004KT CAVOK 14/08 Q1016 NOSIG RMK BLU

Время: 00:36 (22:36 UTC)

Прогноз

Эта сводка был подготовлена 2 часа и 21 минут назад, в 20:15 UTC
Прогноз действительный с 25-го 21 UTC до 26-го 06 UTC
Ветер 6 Узел от южный
Видимость 10 км и более
Нет облачности ниже 1500 м, и нет кучево-дождевой облачности

TAF: LHSN 252015Z 2521/2606 18006KT CAVOK

Метеонаблюдения и прогнозы для более 4000 аэропортов (сводки METAR и TAF).

Имеющиеся станции представлены на карте желтыми и красными точками.

Чтобы увидеть название станции, наведите на нее мышь.

Затем щелкните, чтобы увидеть метеонаблюдения и метеопрогнозы.

Управление картой: чтобы увеличить масштаб, щелкните зеленые кнопки с черным крестиком; чтобы уменьшить масштаб, щелкните зеленую кнопку с тире; для просмотра соседних карт щелкайте зеленые стрелки.


METAR-TAF: